Latest Weather Observations for Condobolin Airport

IDN60801

Issued at 6:35 pm EST Tuesday 29 July 2014 (issued every 30 minutes, with the page automatically refreshed every 10 minutes)

About weather observations | Map of weather stations | Latest weather observations for NSW | Other Formats
Station Details ID: 050137 Name: CONDOBOLIN AIRPORT AWS Lat: -33.07 Lon: 147.21 Height: 192.6 m
Data from the previous 72 hours. | See also: Recent months at Condobolin Airport
Date/Time
EST
Temp
°C
App
Temp
°C
Dew
Point
Rel
Hum
%
Delta-T
°C
Wind Press
QNH
hPa
Press
MSL
hPa
Rain
since 9 am
mm
Dir
 
Spd
km/h
Gust
km/h
Spd
kts
Gust
kts
29/06:30pm 11.7 7.5 1.4 49 4.4 NW 13 15 7 8 1018.0 - 0.0
29/06:00pm 13.7 9.9 2.0 45 5.1 NW 11 13 6 7 1017.9 1018.3 0.0
29/05:30pm 15.2 10.8 0.6 37 6.3 NW 13 15 7 8 1017.7 - 0.0
29/05:00pm 18.9 14.2 1.0 30 8.1 WNW 15 20 8 11 1017.6 - 0.0
29/04:30pm 20.6 14.4 -0.1 25 9.3 WNW 22 30 12 16 1017.4 - 0.0
29/04:00pm 21.2 14.2 -0.7 23 9.7 NW 26 37 14 20 1017.4 - 0.0
29/03:30pm 21.3 13.1 -1.3 22 9.9 WNW 32 43 17 23 1017.3 - 0.0
29/03:00pm 21.5 13.2 -1.7 21 10.1 WNW 32 44 17 24 1017.2 1017.6 0.0
29/02:30pm 21.7 13.4 -1.6 21 10.2 WNW 32 39 17 21 1017.3 - 0.0
29/02:00pm 21.9 14.6 -0.1 23 10.0 WNW 28 37 15 20 1017.6 - 0.0
29/01:30pm 21.5 14.7 0.7 25 9.5 WNW 26 39 14 21 1018.2 - 0.0
29/01:00pm 20.8 13.5 0.1 25 9.3 WNW 28 37 15 20 1018.7 - 0.0
29/12:30pm 20.5 12.7 -0.7 24 9.4 WNW 30 41 16 22 1019.1 - 0.0
29/12:00pm 20.4 14.0 0.8 27 8.9 NW 24 33 13 18 1019.9 1020.2 0.0
29/11:30am 19.6 14.9 2.9 33 7.9 NW 17 28 9 15 1020.5 - 0.0
29/11:00am 17.6 12.2 1.2 33 7.3 NW 19 24 10 13 1020.4 - 0.0
29/10:30am 17.9 11.9 1.0 32 7.5 NW 22 30 12 16 1020.3 - 0.0
29/10:00am 16.3 9.7 -0.4 32 7.2 NW 24 30 13 16 1020.6 - 0.0
29/09:30am 14.9 9.3 1.4 40 5.9 NNW 20 26 11 14 1020.7 - 0.0
29/09:00am 13.9 8.9 1.2 42 5.5 NNW 17 22 9 12 1020.8 1021.1 0.0
29/08:30am 12.2 7.0 0.3 44 5.0 NNW 17 20 9 11 1020.6 - 0.0
29/08:00am 11.9 6.7 0.4 45 4.8 NNW 17 22 9 12 1020.3 - 0.0
29/07:30am 9.4 5.3 0.1 52 3.8 N 11 15 6 8 1020.2 - 0.0
29/07:00am 9.1 4.7 0.6 55 3.5 N 13 17 7 9 1019.9 - 0.0
29/06:30am 6.0 2.8 -0.7 62 2.6 N 6 9 3 5 1019.6 - 0.0
29/06:00am 10.2 6.9 0.0 49 4.1 N 7 13 4 7 1019.4 1019.8 0.0
29/05:30am 9.8 6.5 0.4 52 3.8 N 7 11 4 6 1019.1 - 0.0
29/05:00am 9.7 6.5 0.6 53 3.7 N 7 11 4 6 1019.1 - 0.0
29/04:30am 10.5 5.8 1.1 52 3.9 N 15 19 8 10 1019.0 - 0.0
29/04:00am 8.6 4.9 2.2 64 2.7 N 11 15 6 8 1019.1 - 0.0
29/03:30am 7.3 3.8 1.4 66 2.4 N 9 13 5 7 1019.1 - 0.0
29/03:00am 8.1 3.2 2.1 66 2.5 N 17 19 9 10 1018.9 1019.3 0.0
29/02:30am 8.7 4.6 2.3 64 2.7 N 13 17 7 9 1019.1 - 0.0
29/02:00am 8.4 4.6 1.8 63 2.8 N 11 15 6 8 1019.2 - 0.0
29/01:30am 8.8 3.9 2.2 63 2.8 N 17 20 9 11 1019.2 - 0.0
29/01:00am 8.9 3.5 2.3 63 2.8 N 20 24 11 13 1019.2 - 0.0
29/12:30am 9.3 3.9 2.2 61 3.0 N 20 24 11 13 1019.5 - 0.0
29/12:00am 9.2 3.9 3.0 65 2.7 N 20 22 11 12 1019.6 1020.0 0.0
 
Date/Time
EST
Temp
°C
App
Temp
°C
Dew
Point
Rel
Hum
%
Delta-T
°C
Wind Press
QNH
hPa
Press
MSL
hPa
Rain
since 9 am
mm
Dir
 
Spd
km/h
Gust
km/h
Spd
kts
Gust
kts
28/11:30pm 9.3 4.2 3.3 66 2.6 N 19 20 10 11 1019.9 - 0.0
28/11:00pm 9.9 4.6 3.2 63 2.9 N 20 26 11 14 1020.1 - 0.0
28/10:30pm 10.2 5.1 4.1 66 2.7 N 20 24 11 13 1020.1 - 0.0
28/10:00pm 8.1 3.2 4.3 77 1.7 NNW 19 20 10 11 1020.3 - 0.0
28/09:30pm 7.7 2.8 4.1 78 1.6 NNW 19 20 10 11 1020.4 - 0.0
28/09:00pm 7.1 2.9 3.9 80 1.4 NNW 15 17 8 9 1020.5 1020.8 0.0
28/08:30pm 6.3 1.6 3.3 81 1.3 NNW 17 19 9 10 1020.4 - 0.0
28/08:00pm 6.3 4.0 2.9 79 1.4 NW 4 7 2 4 1020.5 - 0.0
28/07:30pm 6.1 2.1 2.6 78 1.5 NW 13 15 7 8 1020.1 - 0.0
28/07:00pm 6.1 2.4 2.4 77 1.5 NW 11 13 6 7 1020.1 - 0.0
28/06:30pm 6.9 2.3 1.6 69 2.2 NW 15 17 8 9 1019.9 - 0.0
28/06:00pm 10.4 6.7 2.3 57 3.5 NW 11 13 6 7 1019.8 1020.1 0.0
28/05:30pm 12.9 8.7 1.9 47 4.8 NW 13 15 7 8 1019.6 - 0.0
28/05:00pm 16.4 12.6 1.7 37 6.6 NW 11 13 6 7 1019.6 - 0.0
28/04:30pm 18.0 13.4 1.5 33 7.5 NW 15 20 8 11 1019.5 - 0.0
28/04:00pm 18.7 14.0 1.2 31 7.9 WNW 15 20 8 11 1019.5 - 0.0
28/03:30pm 19.0 13.6 1.5 31 8.0 WNW 19 24 10 13 1019.6 - 0.0
28/03:00pm 19.2 13.9 2.1 32 7.9 WNW 19 26 10 14 1019.8 1020.1 0.0
28/02:30pm 18.9 13.3 1.0 30 8.1 WNW 20 28 11 15 1020.0 - 0.0
28/02:00pm 19.1 14.3 2.5 33 7.7 NW 17 30 9 16 1020.3 - 0.0
28/01:30pm 18.7 13.4 1.7 32 7.8 NW 19 28 10 15 1020.8 - 0.0
28/01:00pm 18.7 13.4 2.1 33 7.6 NW 19 26 10 14 1021.0 - 0.0
28/12:30pm 18.1 12.9 2.4 35 7.2 WNW 19 26 10 14 1021.5 - 0.0
28/12:00pm 18.3 13.2 4.1 39 6.8 NW 20 24 11 13 1022.0 1022.4 0.0
28/11:30am 17.4 13.3 6.0 47 5.6 NW 17 24 9 13 1022.4 - 0.0
28/11:00am 16.6 12.4 5.6 48 5.4 NW 17 20 9 11 1022.8 - 0.0
28/10:30am 15.6 12.7 6.3 54 4.6 NNW 11 17 6 9 1023.2 - 0.0
28/10:00am 14.1 11.1 6.0 58 3.9 NNW 11 17 6 9 1023.5 - 0.0
28/09:30am 13.3 10.7 7.7 69 2.8 NNW 11 17 6 9 1023.4 - 0.0
28/09:00am 11.6 9.8 8.1 79 1.7 NNW 7 11 4 6 1023.2 1023.6 0.0
28/08:30am 8.5 6.8 8.4 99 0.0 NNW 7 11 4 6 1022.9 - 0.0
28/08:29am 8.1 6.3 8.0 99 0.0 NNW 7 11 4 6 1022.9 - 0.0
28/08:00am 3.0 0.2 2.9 99 0.0 NNW 7 9 4 5 1023.0 - 0.0
28/07:30am 0.6 -2.4 0.5 99 0.0 NNW 6 7 3 4 1023.1 - 0.0
28/07:00am -0.2 -3.6 -0.5 98 0.1 NNW 7 9 4 5 1023.1 - 0.0
28/06:30am 0.6 -2.5 0.3 98 0.1 NNW 6 7 3 4 1023.0 - 0.0
28/06:00am 0.1 -3.1 -0.3 97 0.1 NNW 6 7 3 4 1022.9 1023.3 0.0
28/05:30am 0.0 -3.4 -0.4 97 0.1 NNW 7 9 4 5 1022.9 - 0.0
28/05:00am 0.6 -1.4 0.0 96 0.2 CALM 0 0 0 0 1023.0 - 0.0
28/04:30am 0.8 -2.3 0.2 96 0.2 NNW 6 9 3 5 1023.1 - 0.0
28/04:00am 2.0 -0.1 1.6 97 0.2 NNW 2 6 1 3 1023.0 - 0.0
28/03:30am 1.5 -1.5 0.9 96 0.2 NNW 6 7 3 4 1022.8 - 0.0
28/03:00am 2.0 0.2 1.3 95 0.3 CALM 0 0 0 0 1023.3 1023.7 0.0
28/02:30am 1.9 0.1 1.0 94 0.3 CALM 0 0 0 0 1023.3 - 0.0
28/02:00am 2.8 1.2 2.2 96 0.2 CALM 0 0 0 0 1023.5 - 0.0
28/01:30am 2.6 0.9 1.9 95 0.3 CALM 0 0 0 0 1023.4 - 0.0
28/01:00am 2.7 1.0 2.0 95 0.3 CALM 0 0 0 0 1023.9 - 0.0
28/12:30am 3.6 0.4 3.0 96 0.2 NNW 9 11 5 6 1024.0 - 0.0
28/12:00am 3.4 1.8 2.5 94 0.4 CALM 0 0 0 0 1024.0 1024.4 0.0
 
Date/Time
EST
Temp
°C
App
Temp
°C
Dew
Point
Rel
Hum
%
Delta-T
°C
Wind Press
QNH
hPa
Press
MSL
hPa
Rain
since 9 am
mm
Dir
 
Spd
km/h
Gust
km/h
Spd
kts
Gust
kts
27/11:30pm 3.2 1.6 2.3 94 0.4 CALM 0 0 0 0 1024.4 - 0.0
27/11:00pm 3.0 1.3 2.0 93 0.4 CALM 0 0 0 0 1024.3 - 0.0
27/10:30pm 3.3 0.3 2.3 93 0.4 NNW 7 9 4 5 1024.0 - 0.0
27/10:00pm 2.9 -0.2 1.4 90 0.6 NNW 7 9 4 5 1024.2 - 0.0
27/09:30pm 3.6 1.9 2.1 90 0.6 CALM 0 0 0 0 1024.5 - 0.0
27/09:00pm 4.0 1.2 2.2 88 0.7 NNW 6 9 3 5 1024.6 1025.0 0.0
27/08:30pm 5.1 2.3 3.3 88 0.8 NNW 7 11 4 6 1024.5 - 0.0
27/08:00pm 4.8 1.2 3.1 89 0.7 NNW 11 11 6 6 1024.5 - 0.0
27/07:30pm 4.9 2.0 2.4 84 1.0 WSW 7 7 4 4 1024.6 - 0.0
27/07:00pm 6.8 4.1 3.8 81 1.3 WSW 7 9 4 5 1024.6 - 0.0
27/06:30pm 7.0 4.2 3.1 76 1.7 WSW 7 9 4 5 1024.7 - 0.0
27/06:00pm 10.1 7.6 4.0 66 2.7 WSW 6 7 3 4 1024.9 1025.3 0.0
27/05:30pm 12.4 9.5 4.6 59 3.6 WSW 9 11 5 6 1024.8 - 0.0
27/05:00pm 14.4 10.4 5.0 53 4.4 WSW 15 20 8 11 1024.9 - 0.0
27/04:30pm 15.4 11.8 5.0 50 5.0 WSW 13 20 7 11 1024.6 - 0.0
27/04:00pm 15.8 11.5 5.1 49 5.1 WSW 17 20 9 11 1024.5 - 0.0
27/03:30pm 16.4 12.1 5.1 47 5.4 SW 17 26 9 14 1024.5 - 0.0
27/03:00pm 16.0 11.3 5.3 49 5.1 WSW 19 24 10 13 1024.6 1025.0 0.0
27/02:30pm 15.4 12.8 5.9 53 4.6 N 9 13 5 7 1024.5 - 0.0
27/02:00pm 14.7 11.3 5.8 55 4.3 N 13 17 7 9 1024.7 - 0.0
27/01:30pm 15.9 13.0 6.3 53 4.7 N 11 19 6 10 1025.0 - 0.0
27/01:00pm 15.6 12.8 7.1 57 4.2 N 11 17 6 9 1025.7 - 0.0
27/12:30pm 14.8 12.1 7.4 61 3.7 N 11 17 6 9 1026.2 - 0.0
27/12:00pm 14.6 12.4 7.9 64 3.3 N 9 13 5 7 1026.9 1027.3 0.0
27/11:30am 13.9 12.4 8.5 70 2.7 N 6 11 3 6 1027.4 - 0.0
27/11:00am 14.1 13.2 9.1 72 2.6 N 4 7 2 4 1027.7 - 0.0
27/10:30am 12.1 11.0 8.6 79 1.8 N 4 7 2 4 1027.8 - 0.0
27/10:00am 10.8 10.2 9.1 89 0.9 N 2 6 1 3 1028.1 - 0.0
27/09:30am 9.7 8.8 9.1 96 0.3 N 4 9 2 5 1028.0 - 0.0
27/09:00am 8.5 8.1 8.4 99 0.0 CALM 0 6 0 3 1027.8 1028.2 0.0
27/08:30am 5.0 3.9 4.9 99 0.0 CALM 0 0 0 0 1027.7 - 0.0
27/08:00am 1.9 0.2 1.8 99 0.0 CALM 0 6 0 3 1027.5 - 0.0
27/07:30am 0.2 -1.8 0.1 99 0.0 CALM 0 0 0 0 1027.3 - 0.0
27/07:00am 0.4 -1.6 0.1 98 0.1 CALM 0 0 0 0 1026.9 - 0.0
27/06:30am 0.1 -1.9 -0.3 97 0.2 CALM 0 0 0 0 1026.7 - 0.0
27/06:00am 0.4 -1.6 0.0 97 0.1 CALM 0 0 0 0 1026.3 1026.7 0.0
27/05:30am 0.6 -1.4 0.2 97 0.1 CALM 0 0 0 0 1026.1 - 0.0
27/05:00am 0.6 -1.4 0.2 97 0.1 CALM 0 0 0 0 1026.0 - 0.0
27/04:30am 0.5 -1.5 -0.1 96 0.2 CALM 0 0 0 0 1026.2 - 0.0
27/04:00am 1.3 -1.9 0.7 96 0.2 WSW 7 9 4 5 1026.3 - 0.0
27/03:30am 1.5 -0.3 0.9 96 0.2 CALM 0 0 0 0 1026.4 - 0.0
27/03:00am 1.2 -0.7 0.5 95 0.3 CALM 0 0 0 0 1026.4 1026.8 0.0
27/02:30am 1.6 -0.2 0.9 95 0.3 CALM 0 0 0 0 1026.4 - 0.0
27/02:00am 2.4 0.7 1.8 96 0.2 CALM 0 0 0 0 1026.4 - 0.0
27/01:30am 2.5 0.8 1.9 96 0.2 CALM 0 0 0 0 1026.4 - 0.0
27/01:00am 2.1 0.3 1.2 94 0.3 CALM 0 0 0 0 1026.5 - 0.0
27/12:30am 3.0 1.4 2.3 95 0.3 CALM 0 0 0 0 1026.6 - 0.0
27/12:00am 4.2 2.8 3.6 96 0.2 CALM 0 0 0 0 1026.9 1027.3 0.0
 
Date/Time
EST
Temp
°C
App
Temp
°C
Dew
Point
Rel
Hum
%
Delta-T
°C
Wind Press
QNH
hPa
Press
MSL
hPa
Rain
since 9 am
mm
Dir
 
Spd
km/h
Gust
km/h
Spd
kts
Gust
kts
26/11:30pm 4.1 2.6 3.2 94 0.4 CALM 0 0 0 0 1027.1 - 0.0
26/11:00pm 4.5 3.1 3.3 92 0.5 CALM 0 0 0 0 1027.0 - 0.0
26/10:30pm 5.6 4.5 5.2 97 0.2 CALM 0 0 0 0 1026.9 - 0.0
26/10:00pm 4.5 3.0 2.8 89 0.7 CALM 0 0 0 0 1026.9 - 0.0
26/09:30pm 5.7 4.5 4.7 93 0.4 CALM 0 0 0 0 1026.8 - 0.0
26/09:00pm 6.3 3.9 4.5 88 0.8 WSW 6 7 3 4 1026.6 1027.0 0.0
26/08:30pm 7.2 5.0 5.3 88 0.9 WSW 6 7 3 4 1026.4 - 0.0
26/08:00pm 7.3 4.7 4.1 80 1.4 WSW 7 7 4 4 1026.1 - 0.0
26/07:30pm 8.8 6.1 5.4 79 1.5 WSW 9 9 5 5 1026.0 - 0.0
26/07:00pm 10.4 7.5 6.5 77 1.8 WSW 11 13 6 7 1025.8 - 0.0

Other Formats:

Comma delimited format used in spreadsheet applications
http://www.bom.gov.au/fwo/IDN60801/IDN60801.95708.axf

JavaScript Object Notation format (JSON) in row-major order
http://www.bom.gov.au/fwo/IDN60801/IDN60801.95708.json